createdAt,value
2023-09-18T00:00:23.209Z,68.28
2023-09-18T00:01:23.226Z,68.28
2023-09-18T00:02:23.216Z,68.85
2023-09-18T00:03:23.238Z,69.02
2023-09-18T00:04:23.153Z,68.90
2023-09-18T00:05:23.127Z,68.56
2023-09-18T00:06:23.126Z,68.90
2023-09-18T00:07:23.092Z,69.31
2023-09-18T00:08:23.108Z,68.68
2023-09-18T00:09:23.073Z,67.95
2023-09-18T00:10:23.051Z,68.34
2023-09-18T00:11:23.090Z,67.62
2023-09-18T00:12:23.025Z,66.69
2023-09-18T00:13:23.050Z,66.32
2023-09-18T00:14:23.065Z,66.91
2023-09-18T00:15:23.013Z,68.79
2023-09-18T00:16:23.035Z,69.08
2023-09-18T00:17:22.980Z,69.25
2023-09-18T00:18:22.981Z,70.36
2023-09-18T00:19:22.931Z,70.18
2023-09-18T00:20:22.940Z,71.03
2023-09-18T00:21:22.920Z,70.90
2023-09-18T00:22:22.899Z,71.21
2023-09-18T00:23:22.916Z,70.54
2023-09-18T00:24:22.873Z,71.15
2023-09-18T00:25:22.874Z,72.07
2023-09-18T00:26:22.907Z,72.51
2023-09-18T00:27:22.826Z,72.77
2023-09-18T00:28:22.827Z,72.13
2023-09-18T00:29:22.825Z,72.45
2023-09-18T00:30:22.794Z,72.77
2023-09-18T00:31:22.844Z,72.39
2023-09-18T00:32:22.812Z,72.57
2023-09-18T00:33:22.787Z,71.82
2023-09-18T00:34:22.786Z,72.07
2023-09-18T00:35:22.752Z,72.57
2023-09-18T00:36:22.734Z,72.96
2023-09-18T00:37:22.702Z,73.54
2023-09-18T00:38:22.737Z,73.28
2023-09-18T00:39:22.668Z,73.73
2023-09-18T00:40:22.677Z,73.67
2023-09-18T00:41:22.736Z,73.73
2023-09-18T00:42:22.647Z,73.60
2023-09-18T00:43:22.616Z,74.33
2023-09-18T00:44:22.654Z,74.73
2023-09-18T00:45:22.584Z,74.93
2023-09-18T00:46:22.582Z,74.26
2023-09-18T00:47:22.675Z,73.21
2023-09-18T00:48:22.587Z,73.34
2023-09-18T00:49:22.536Z,73.34
2023-09-18T00:50:22.618Z,71.82
2023-09-18T00:51:22.511Z,71.03
2023-09-18T00:52:22.511Z,70.30
2023-09-18T00:53:22.556Z,70.24
2023-09-18T00:54:22.476Z,69.13
2023-09-18T00:55:22.498Z,68.00
2023-09-18T00:56:24.081Z,67.40
2023-09-18T00:57:22.435Z,66.22
2023-09-18T00:58:22.435Z,65.95
2023-09-18T00:59:22.460Z,65.74
2023-09-18T01:00:22.399Z,63.73
2023-09-18T01:01:22.434Z,62.02
2023-09-18T01:02:22.477Z,60.57
2023-09-18T01:03:22.590Z,60.97
2023-09-18T01:04:22.349Z,61.38
2023-09-18T01:05:22.381Z,61.88
2023-09-18T01:06:22.328Z,63.05
2023-09-18T01:07:22.313Z,62.86
2023-09-18T01:08:22.314Z,65.02
2023-09-18T01:09:22.273Z,65.28
2023-09-18T01:10:22.260Z,66.59
2023-09-18T01:11:22.282Z,67.56
2023-09-18T01:12:22.244Z,69.08
2023-09-18T01:13:22.219Z,70.72
2023-09-18T01:14:22.235Z,71.39
2023-09-18T01:15:22.202Z,73.47
2023-09-18T01:16:22.222Z,77.73
2023-09-18T01:17:22.219Z,80.83
2023-09-18T01:18:22.203Z,83.35
2023-09-18T01:19:22.138Z,87.10
2023-09-18T01:20:22.207Z,90.91
2023-09-18T01:21:22.212Z,93.26
2023-09-18T01:22:22.126Z,92.43
2023-09-18T01:23:22.171Z,91.21
2023-09-18T01:24:22.072Z,89.73
2023-09-18T01:25:22.062Z,88.21
2023-09-18T01:26:22.059Z,88.96
2023-09-18T01:27:22.045Z,93.78
2023-09-18T01:28:22.026Z,95.49
2023-09-18T01:29:22.046Z,98.43
2023-09-18T01:30:21.996Z,101.62
2023-09-18T01:31:22.863Z,105.35
2023-09-18T01:32:22.004Z,108.80
2023-09-18T01:33:22.031Z,109.16
2023-09-18T01:34:21.954Z,112.48
2023-09-18T01:35:22.091Z,113.56
2023-09-18T01:36:21.915Z,114.81
2023-09-18T01:37:21.915Z,112.79
2023-09-18T01:38:21.920Z,118.58
2023-09-18T01:39:21.872Z,119.09
2023-09-18T01:40:21.868Z,121.00
2023-09-18T01:41:21.861Z,121.97
2023-09-18T01:42:21.827Z,121.62
2023-09-18T01:43:21.829Z,122.69
2023-09-18T01:44:21.890Z,123.15
2023-09-18T01:45:21.791Z,119.00
2023-09-18T01:46:21.818Z,113.95
2023-09-18T01:47:21.799Z,109.88
2023-09-18T01:48:21.790Z,108.17
2023-09-18T01:49:21.735Z,105.09
2023-09-18T01:50:21.757Z,98.72
2023-09-18T01:51:21.727Z,95.84
2023-09-18T01:52:21.718Z,92.43
2023-09-18T01:53:21.765Z,87.47
2023-09-18T01:54:21.681Z,83.26
2023-09-18T01:55:21.655Z,81.79
2023-09-18T01:56:21.667Z,81.79
2023-09-18T01:57:21.641Z,81.79
2023-09-18T01:58:21.613Z,79.59
2023-09-18T01:59:21.654Z,79.14
2023-09-18T02:00:21.595Z,79.21
2023-09-18T02:01:21.572Z,80.60
2023-09-18T02:02:25.150Z,81.47
2023-09-18T02:03:36.470Z,80.91
2023-09-18T02:05:05.585Z,81.31
2023-09-18T02:05:21.671Z,82.52
2023-09-18T02:06:21.771Z,83.26
2023-09-18T02:07:21.663Z,84.70
2023-09-18T02:08:21.545Z,84.36
2023-09-18T02:09:21.485Z,83.68
2023-09-18T02:10:21.481Z,84.27
2023-09-18T02:11:21.484Z,86.47
2023-09-18T02:12:21.439Z,88.87
2023-09-18T02:13:21.437Z,89.35
2023-09-18T02:14:21.454Z,90.61
2023-09-18T02:15:21.404Z,91.11
2023-09-18T02:16:21.407Z,91.71
2023-09-18T02:17:21.420Z,91.21
2023-09-18T02:18:21.386Z,89.54
2023-09-18T02:19:21.352Z,88.21
2023-09-18T02:20:21.352Z,86.38
2023-09-18T02:21:21.316Z,86.29
2023-09-18T02:22:21.286Z,87.74
2023-09-18T02:23:21.304Z,88.77
2023-09-18T02:24:21.630Z,90.71
2023-09-18T02:25:21.255Z,91.11
2023-09-18T02:26:21.275Z,92.53
2023-09-18T02:27:21.257Z,90.91
2023-09-18T02:28:21.238Z,88.40
2023-09-18T02:29:21.223Z,86.92
2023-09-18T02:30:21.196Z,83.93
2023-09-18T02:31:21.178Z,81.31
2023-09-18T02:32:21.221Z,77.81
2023-09-18T02:33:21.257Z,74.39
2023-09-18T02:34:21.143Z,72.96
2023-09-18T02:35:21.146Z,72.70
2023-09-18T02:36:21.116Z,73.15
2023-09-18T02:37:21.088Z,76.59
2023-09-18T02:38:21.100Z,77.81
2023-09-18T02:39:21.074Z,80.52
2023-09-18T02:40:21.063Z,80.52
2023-09-18T02:41:21.082Z,80.83
2023-09-18T02:42:21.025Z,81.79
2023-09-18T02:43:21.010Z,81.87
2023-09-18T02:44:21.053Z,83.68
2023-09-18T02:45:21.000Z,84.36
2023-09-18T02:46:21.042Z,86.02
2023-09-18T02:47:21.006Z,86.92
2023-09-18T02:48:20.956Z,88.40
2023-09-18T02:49:20.936Z,89.64
2023-09-18T02:50:20.962Z,88.30
2023-09-18T02:51:20.921Z,86.74
2023-09-18T02:52:20.890Z,87.47
2023-09-18T02:53:20.965Z,87.01
2023-09-18T02:54:20.876Z,83.60
2023-09-18T02:55:20.871Z,80.60
2023-09-18T02:56:20.865Z,77.37
2023-09-18T02:57:20.841Z,74.79
2023-09-18T02:58:20.811Z,72.51
2023-09-18T02:59:20.827Z,68.56
2023-09-18T03:00:33.081Z,66.69
2023-09-18T03:01:20.823Z,66.00
2023-09-18T03:02:20.879Z,65.59
2023-09-18T03:03:20.807Z,66.53
2023-09-18T03:04:20.734Z,65.43
2023-09-18T03:05:20.801Z,63.97
2023-09-18T03:06:20.717Z,62.53
2023-09-18T03:07:20.708Z,61.97
2023-09-18T03:08:20.717Z,60.84
2023-09-18T03:09:20.688Z,59.57
2023-09-18T03:10:20.671Z,60.35
2023-09-18T03:11:21.301Z,59.02
2023-09-18T03:12:20.650Z,58.15
2023-09-18T03:13:20.617Z,56.42
2023-09-18T03:14:20.681Z,55.33
2023-09-18T03:15:20.591Z,55.85
2023-09-18T03:16:20.640Z,55.55
2023-09-18T03:17:20.581Z,56.76
2023-09-18T03:18:20.590Z,57.55
2023-09-18T03:19:20.540Z,57.79
2023-09-18T03:20:20.571Z,58.28
2023-09-18T03:21:20.517Z,58.20
2023-09-18T03:22:20.509Z,58.94
2023-09-18T03:23:20.586Z,58.69
2023-09-18T03:24:20.469Z,58.52
2023-09-18T03:25:20.475Z,57.87
2023-09-18T03:26:20.527Z,58.20
2023-09-18T03:27:20.427Z,58.98
2023-09-18T03:28:20.443Z,59.44
2023-09-18T03:29:20.432Z,59.66
2023-09-18T03:30:20.392Z,59.28
2023-09-18T03:31:20.418Z,59.28
2023-09-18T03:32:20.431Z,57.95
2023-09-18T03:33:20.470Z,55.85
2023-09-18T03:34:20.373Z,54.60
2023-09-18T03:35:20.335Z,53.93
2023-09-18T03:36:20.309Z,52.93
2023-09-18T03:37:20.348Z,51.36
2023-09-18T03:38:20.302Z,50.37
2023-09-18T03:39:20.261Z,49.53
2023-09-18T03:40:20.274Z,48.63
2023-09-18T03:41:20.293Z,47.90
2023-09-18T03:42:20.223Z,47.46
2023-09-18T03:43:20.217Z,46.59
2023-09-18T03:44:20.223Z,45.67
2023-09-18T03:45:20.204Z,44.83
2023-09-18T03:46:20.184Z,43.65
2023-09-18T03:47:20.241Z,43.70
2023-09-18T03:48:20.191Z,43.07
2023-09-18T03:49:20.131Z,42.19
2023-09-18T03:50:20.163Z,41.98
2023-09-18T03:51:20.122Z,41.48
2023-09-18T03:52:20.090Z,41.60
2023-09-18T03:53:20.085Z,40.91
2023-09-18T03:54:20.078Z,40.47
2023-09-18T03:55:20.065Z,39.14
2023-09-18T03:56:20.129Z,38.85
2023-09-18T03:57:20.039Z,38.85
2023-09-18T03:58:20.034Z,38.52
2023-09-18T03:59:20.116Z,38.45
2023-09-18T04:00:19.977Z,38.77
2023-09-18T04:01:20.006Z,38.38
2023-09-18T04:02:19.985Z,38.70
2023-09-18T04:03:20.001Z,39.06
2023-09-18T04:04:19.964Z,39.36
2023-09-18T04:05:20.256Z,38.59
2023-09-18T04:06:19.899Z,37.82
2023-09-18T04:07:19.900Z,37.11
2023-09-18T04:08:19.929Z,37.01
2023-09-18T04:09:19.871Z,37.72
2023-09-18T04:10:19.874Z,37.45
2023-09-18T04:11:19.879Z,37.62
2023-09-18T04:12:19.834Z,38.38
2023-09-18T04:13:19.817Z,38.27
2023-09-18T04:14:19.851Z,38.34
2023-09-18T04:15:19.886Z,37.58
2023-09-18T04:16:19.854Z,37.68
2023-09-18T04:17:19.799Z,37.72
2023-09-18T04:18:19.858Z,37.38
2023-09-18T04:19:19.733Z,37.01
2023-09-18T04:20:19.780Z,36.65
2023-09-18T04:21:19.702Z,36.11
2023-09-18T04:22:19.702Z,35.44
2023-09-18T04:23:19.716Z,35.05
2023-09-18T04:24:19.656Z,34.53
2023-09-18T04:25:19.658Z,33.93
2023-09-18T04:26:19.671Z,33.52
2023-09-18T04:27:19.622Z,33.20
2023-09-18T04:28:19.685Z,32.94
2023-09-18T04:29:19.618Z,32.97
2023-09-18T04:30:19.585Z,32.99
2023-09-18T04:31:19.579Z,33.23
2023-09-18T04:32:19.680Z,32.84
2023-09-18T04:33:19.880Z,33.18
2023-09-18T04:34:19.561Z,32.89
2023-09-18T04:35:19.537Z,33.20
2023-09-18T04:36:19.503Z,33.28
2023-09-18T04:37:19.490Z,33.07
2023-09-18T04:38:19.498Z,32.89
2023-09-18T04:39:19.484Z,32.68
2023-09-18T04:40:19.452Z,32.50
2023-09-18T04:41:19.515Z,32.40
2023-09-18T04:42:19.443Z,32.63
2023-09-18T04:43:19.422Z,32.38
2023-09-18T04:44:19.476Z,32.89
2023-09-18T04:45:19.395Z,33.12
2023-09-18T04:46:19.403Z,33.28
2023-09-18T04:47:19.409Z,33.31
2023-09-18T04:48:19.420Z,33.36
2023-09-18T04:49:19.356Z,33.04
2023-09-18T04:50:19.870Z,32.81
2023-09-18T04:51:19.334Z,32.63
2023-09-18T04:52:19.323Z,32.38
2023-09-18T04:53:19.327Z,32.38
2023-09-18T04:54:19.290Z,32.18
2023-09-18T04:55:19.295Z,32.15
2023-09-18T04:56:19.324Z,32.03
2023-09-18T04:57:19.858Z,32.13
2023-09-18T04:58:19.239Z,32.05
2023-09-18T04:59:19.244Z,31.98
2023-09-18T05:00:19.199Z,31.73
2023-09-18T05:01:19.212Z,31.42
2023-09-18T05:02:19.265Z,31.07
2023-09-18T05:03:19.288Z,30.86
2023-09-18T05:04:19.161Z,30.66
2023-09-18T05:05:19.334Z,30.52
2023-09-18T05:06:19.231Z,30.55
2023-09-18T05:07:19.117Z,30.73
2023-09-18T05:08:19.164Z,30.86
2023-09-18T05:09:19.100Z,31.07
2023-09-18T05:10:19.081Z,31.30
2023-09-18T05:11:19.084Z,31.42
2023-09-18T05:12:19.057Z,31.42
2023-09-18T05:13:19.037Z,31.47
2023-09-18T05:14:19.068Z,31.64
2023-09-18T05:15:19.051Z,31.30
2023-09-18T05:16:19.016Z,31.26
2023-09-18T05:17:19.029Z,31.66
2023-09-18T05:18:19.011Z,32.00
2023-09-18T05:19:18.976Z,32.38
2023-09-18T05:20:19.067Z,32.73
2023-09-18T05:21:18.943Z,33.31
2023-09-18T05:22:18.930Z,32.94
2023-09-18T05:23:19.281Z,33.02
2023-09-18T05:24:18.905Z,33.02
2023-09-18T05:25:18.897Z,33.10
2023-09-18T05:26:18.907Z,33.26
2023-09-18T05:27:18.861Z,32.89
2023-09-18T05:28:18.860Z,32.08
2023-09-18T05:29:18.923Z,31.95
2023-09-18T05:30:18.833Z,31.64
2023-09-18T05:31:18.886Z,31.47
2023-09-18T05:32:18.837Z,30.82
2023-09-18T05:33:18.841Z,30.66
2023-09-18T05:34:18.766Z,30.34
2023-09-18T05:35:18.789Z,30.10
2023-09-18T05:36:18.742Z,30.41
2023-09-18T05:37:18.773Z,30.68
2023-09-18T05:38:18.729Z,30.41
2023-09-18T05:39:18.709Z,30.43
2023-09-18T05:40:18.714Z,30.82
2023-09-18T05:41:18.722Z,30.48
2023-09-18T05:42:18.669Z,30.32
2023-09-18T05:43:18.667Z,29.82
2023-09-18T05:44:18.654Z,29.95
2023-09-18T05:45:18.671Z,29.89
2023-09-18T05:46:18.661Z,29.49
2023-09-18T05:47:18.651Z,29.65
2023-09-18T05:48:18.660Z,29.24
2023-09-18T05:49:18.586Z,29.72
2023-09-18T05:50:18.659Z,29.51
2023-09-18T05:51:18.598Z,29.26
2023-09-18T05:52:18.545Z,29.26
2023-09-18T05:53:18.585Z,29.01
2023-09-18T05:54:18.527Z,28.71
2023-09-18T05:55:18.522Z,28.69
2023-09-18T05:56:18.523Z,27.90
2023-09-18T05:57:18.496Z,27.44
2023-09-18T05:58:18.485Z,27.23
2023-09-18T05:59:18.498Z,27.14
2023-09-18T06:00:18.467Z,27.33
2023-09-18T06:01:18.451Z,27.25
2023-09-18T06:02:18.461Z,27.10
2023-09-18T06:03:18.535Z,27.28
2023-09-18T06:04:18.537Z,27.41
2023-09-18T06:05:18.401Z,27.53
2023-09-18T06:06:18.429Z,27.57
2023-09-18T06:07:18.367Z,27.61
2023-09-18T06:08:18.380Z,27.79
2023-09-18T06:09:18.341Z,27.98
2023-09-18T06:10:18.316Z,28.38
2023-09-18T06:11:18.339Z,28.69
2023-09-18T06:12:18.309Z,28.87
2023-09-18T06:13:18.278Z,29.03
2023-09-18T06:14:18.277Z,29.07
2023-09-18T06:15:18.274Z,29.03
2023-09-18T06:16:18.268Z,29.11
2023-09-18T06:17:18.265Z,29.05
2023-09-18T06:18:18.302Z,29.34
2023-09-18T06:19:18.197Z,30.28
2023-09-18T06:20:18.250Z,30.21
2023-09-18T06:21:18.183Z,30.73
2023-09-18T06:22:18.184Z,31.30
2023-09-18T06:23:18.168Z,31.90
2023-09-18T06:24:18.136Z,32.05
2023-09-18T06:25:18.130Z,31.52
2023-09-18T06:26:18.205Z,30.98
2023-09-18T06:27:18.111Z,30.80
2023-09-18T06:28:18.083Z,30.46
2023-09-18T06:29:18.103Z,30.39
2023-09-18T06:30:18.094Z,30.37
2023-09-18T06:31:18.107Z,30.46
2023-09-18T06:32:18.086Z,30.75
2023-09-18T06:33:18.171Z,30.41
2023-09-18T06:34:20.750Z,30.68
2023-09-18T06:35:18.048Z,30.30
2023-09-18T06:36:17.999Z,30.10
2023-09-18T06:37:17.994Z,30.37
2023-09-18T06:38:17.977Z,30.39
2023-09-18T06:39:17.964Z,30.10
2023-09-18T06:40:17.935Z,30.80
2023-09-18T06:41:17.978Z,31.35
2023-09-18T06:42:17.924Z,30.95
2023-09-18T06:43:17.920Z,31.38
2023-09-18T06:44:17.911Z,31.95
2023-09-18T06:45:17.870Z,32.66
2023-09-18T06:46:17.911Z,33.88
2023-09-18T06:47:17.906Z,33.91
2023-09-18T06:48:17.862Z,33.50
2023-09-18T06:49:17.817Z,32.78
2023-09-18T06:50:17.818Z,32.94
2023-09-18T06:51:21.920Z,34.41
2023-09-18T06:52:17.787Z,34.53
2023-09-18T06:53:17.791Z,34.41
2023-09-18T06:54:17.749Z,34.67
2023-09-18T06:55:17.760Z,34.87
2023-09-18T06:56:17.817Z,34.90
2023-09-18T06:57:17.739Z,34.35
2023-09-18T06:58:17.719Z,34.93
2023-09-18T06:59:17.762Z,35.87
2023-09-18T07:00:17.705Z,36.53
2023-09-18T07:01:17.693Z,37.68
2023-09-18T07:02:17.700Z,37.92
2023-09-18T07:03:17.791Z,37.99
2023-09-18T07:04:17.789Z,37.05
2023-09-18T07:05:17.797Z,35.96
2023-09-18T07:06:17.619Z,35.74
2023-09-18T07:07:17.625Z,35.99
2023-09-18T07:08:17.588Z,35.83
2023-09-18T07:09:17.579Z,36.59
2023-09-18T07:10:17.569Z,36.56
2023-09-18T07:11:17.553Z,35.96
2023-09-18T07:12:17.529Z,35.17
2023-09-18T07:13:17.510Z,37.41
2023-09-18T07:14:17.534Z,39.70
2023-09-18T07:15:17.519Z,41.07
2023-09-18T07:16:17.528Z,42.89
2023-09-18T07:17:17.513Z,42.63
2023-09-18T07:18:17.501Z,45.17
2023-09-18T07:19:17.536Z,48.18
2023-09-18T07:20:19.912Z,48.18
2023-09-18T07:21:17.433Z,49.12
2023-09-18T07:22:17.386Z,48.80
2023-09-18T07:23:17.408Z,50.22
2023-09-18T07:24:17.374Z,53.48
2023-09-18T07:25:17.367Z,55.51
2023-09-18T07:26:17.384Z,56.38
2023-09-18T07:27:17.329Z,52.93
2023-09-18T07:28:17.316Z,56.30
2023-09-18T07:29:17.415Z,58.40
2023-09-18T07:30:17.368Z,55.37
2023-09-18T07:31:17.310Z,55.15
2023-09-18T07:32:29.782Z,56.04
2023-09-18T07:33:17.350Z,53.38
2023-09-18T07:34:17.250Z,57.04
2023-09-18T07:35:17.453Z,59.49
2023-09-18T07:36:17.227Z,57.59
2023-09-18T07:37:17.200Z,58.85
2023-09-18T07:38:17.226Z,58.07
2023-09-18T07:39:17.167Z,57.00
2023-09-18T07:40:17.164Z,55.44
2023-09-18T07:41:17.216Z,53.07
2023-09-18T07:42:17.126Z,53.62
2023-09-18T07:43:17.144Z,54.14
2023-09-18T07:44:17.095Z,52.56
2023-09-18T07:45:17.109Z,50.67
2023-09-18T07:46:17.136Z,50.31
2023-09-18T07:47:17.104Z,49.41
2023-09-18T07:48:17.082Z,50.43
2023-09-18T07:49:17.043Z,50.28
2023-09-18T07:50:19.636Z,51.11
2023-09-18T07:51:17.033Z,52.04
2023-09-18T07:52:17.009Z,50.80
2023-09-18T07:53:17.031Z,50.99
2023-09-18T07:54:16.985Z,51.62
2023-09-18T07:55:16.957Z,53.38
2023-09-18T07:56:16.988Z,54.28
2023-09-18T07:57:16.980Z,54.82
2023-09-18T07:58:16.925Z,57.00
2023-09-18T07:59:16.927Z,58.44
2023-09-18T08:00:16.949Z,60.84
2023-09-18T08:01:16.902Z,62.20
2023-09-18T08:02:16.891Z,61.79
2023-09-18T08:03:16.904Z,62.06
2023-09-18T08:04:16.900Z,65.54
2023-09-18T08:05:16.904Z,67.18
2023-09-18T08:06:16.824Z,68.56
2023-09-18T08:07:16.842Z,66.16
2023-09-18T08:08:16.879Z,69.13
2023-09-18T08:09:16.821Z,71.03
2023-09-18T08:10:16.791Z,73.28
2023-09-18T08:11:16.761Z,73.34
2023-09-18T08:12:16.767Z,74.33
2023-09-18T08:13:16.717Z,75.20
2023-09-18T08:14:16.765Z,73.34
2023-09-18T08:15:16.725Z,73.02
2023-09-18T08:16:16.706Z,70.42
2023-09-18T08:17:16.667Z,71.39
2023-09-18T08:18:16.854Z,72.96
2023-09-18T08:19:16.717Z,72.26
2023-09-18T08:20:16.661Z,72.70
2023-09-18T08:21:16.619Z,68.23
2023-09-18T08:22:16.665Z,64.52
2023-09-18T08:23:16.623Z,60.79
2023-09-18T08:24:16.581Z,61.33
2023-09-18T08:25:16.576Z,67.12
2023-09-18T08:26:16.610Z,71.08
2023-09-18T08:27:16.532Z,75.96
2023-09-18T08:28:16.552Z,75.47
2023-09-18T08:29:20.294Z,75.41
2023-09-18T08:30:16.586Z,77.81
2023-09-18T08:31:16.545Z,82.85
2023-09-18T08:32:16.504Z,83.85
2023-09-18T08:33:16.557Z,85.93
2023-09-18T08:34:16.470Z,84.27
2023-09-18T08:35:16.480Z,89.44
2023-09-18T08:36:16.422Z,92.74
2023-09-18T08:37:16.407Z,91.31
2023-09-18T08:38:16.447Z,86.92
2023-09-18T08:39:16.400Z,81.07
2023-09-18T08:40:16.367Z,84.02
2023-09-18T08:41:16.388Z,82.76
2023-09-18T08:42:16.342Z,77.44
2023-09-18T08:43:16.320Z,74.06
2023-09-18T08:44:16.355Z,76.66
2023-09-18T08:45:16.321Z,78.32
2023-09-18T08:46:16.303Z,81.23
2023-09-18T08:47:16.297Z,80.91
2023-09-18T08:48:16.344Z,82.43
2023-09-18T08:49:16.252Z,84.44
2023-09-18T08:50:16.282Z,84.02
2023-09-18T08:51:16.221Z,87.01
2023-09-18T08:52:16.239Z,88.58
2023-09-18T08:53:16.224Z,89.35
2023-09-18T08:54:16.182Z,90.12
2023-09-18T08:55:16.166Z,90.12
2023-09-18T08:56:16.172Z,91.21
2023-09-18T08:57:16.159Z,89.64
2023-09-18T08:58:16.129Z,92.32
2023-09-18T08:59:16.157Z,93.15
2023-09-18T09:00:16.099Z,91.71
2023-09-18T09:01:16.176Z,92.22
2023-09-18T09:02:16.108Z,91.51
2023-09-18T09:03:16.273Z,91.92
2023-09-18T09:04:16.077Z,91.11
2023-09-18T09:05:16.124Z,89.64
2023-09-18T09:06:16.012Z,82.43
2023-09-18T09:07:16.001Z,76.87
2023-09-18T09:08:16.038Z,73.15
2023-09-18T09:09:15.989Z,72.51
2023-09-18T09:10:15.990Z,74.59
2023-09-18T09:11:15.983Z,76.31
2023-09-18T09:12:15.947Z,74.93
2023-09-18T09:13:26.908Z,78.91
2023-09-18T09:14:15.992Z,77.30
2023-09-18T09:15:15.987Z,77.51
2023-09-18T09:16:15.909Z,74.86
2023-09-18T09:17:15.888Z,75.82
2023-09-18T09:18:15.885Z,77.16
2023-09-18T09:19:15.848Z,78.76
2023-09-18T09:20:15.910Z,75.27
2023-09-18T09:21:15.812Z,72.26
2023-09-18T09:22:15.804Z,73.15
2023-09-18T09:23:15.806Z,74.33
2023-09-18T09:24:15.784Z,75.47
2023-09-18T09:25:15.762Z,77.88
2023-09-18T09:26:15.827Z,77.95
2023-09-18T09:27:15.780Z,77.30
2023-09-18T09:28:15.719Z,77.37
2023-09-18T09:29:15.737Z,77.73
2023-09-18T09:30:15.708Z,78.32
2023-09-18T09:31:15.914Z,77.16
2023-09-18T09:32:15.743Z,77.51
2023-09-18T09:33:15.764Z,77.37
2023-09-18T09:34:15.652Z,78.91
2023-09-18T09:35:15.641Z,80.60
2023-09-18T09:36:15.620Z,80.68
2023-09-18T09:37:15.620Z,78.39
2023-09-18T09:38:15.737Z,75.96
2023-09-18T09:39:15.695Z,73.73
2023-09-18T09:40:15.663Z,70.24
2023-09-18T09:41:15.671Z,73.67
2023-09-18T09:42:15.534Z,70.54
2023-09-18T09:43:15.527Z,67.67
2023-09-18T09:44:15.544Z,69.48
2023-09-18T09:45:15.510Z,67.95
2023-09-18T09:46:15.564Z,68.96
2023-09-18T09:47:15.595Z,71.89
2023-09-18T09:48:15.493Z,73.80
2023-09-18T09:49:15.455Z,76.03
2023-09-18T09:50:15.445Z,81.23
2023-09-18T09:51:15.419Z,83.10
2023-09-18T09:52:15.450Z,86.47
2023-09-18T09:53:15.443Z,89.64
2023-09-18T09:54:15.392Z,88.49
2023-09-18T09:55:15.382Z,84.96
2023-09-18T09:56:15.388Z,85.84
2023-09-18T09:57:15.337Z,84.44
2023-09-18T09:58:15.798Z,84.10
2023-09-18T09:59:15.377Z,88.30
2023-09-18T10:00:15.301Z,92.63
2023-09-18T10:01:15.344Z,91.01
2023-09-18T10:02:15.388Z,95.18
2023-09-18T10:03:15.310Z,95.40
2023-09-18T10:04:15.266Z,91.41
2023-09-18T10:05:15.243Z,87.56
2023-09-18T10:06:21.850Z,87.74
2023-09-18T10:07:15.259Z,89.44
2023-09-18T10:08:15.307Z,94.21
2023-09-18T10:09:15.261Z,95.44
2023-09-18T10:10:15.213Z,96.94
2023-09-18T10:11:15.257Z,95.84
2023-09-18T10:12:15.171Z,95.62
2023-09-18T10:13:15.175Z,92.02
2023-09-18T10:14:15.188Z,91.51
2023-09-18T10:15:15.199Z,91.01
2023-09-18T10:16:15.193Z,95.73
2023-09-18T10:17:15.132Z,95.60
2023-09-18T10:18:15.168Z,99.73
2023-09-18T10:19:15.065Z,104.30
2023-09-18T10:20:15.104Z,107.61
2023-09-18T10:21:15.028Z,111.20
2023-09-18T10:22:15.025Z,112.64
2023-09-18T10:23:15.087Z,113.56
2023-09-18T10:24:14.993Z,107.74
2023-09-18T10:25:14.985Z,100.70
2023-09-18T10:26:14.998Z,95.05
2023-09-18T10:27:14.962Z,98.72
2023-09-18T10:28:14.948Z,101.00
2023-09-18T10:29:14.970Z,102.88
2023-09-18T10:30:14.945Z,100.76
2023-09-18T10:31:14.949Z,105.76
2023-09-18T10:32:14.932Z,107.81
2023-09-18T10:33:15.059Z,109.30
2023-09-18T10:34:14.948Z,112.33
2023-09-18T10:35:14.869Z,114.26
2023-09-18T10:36:14.842Z,115.85
2023-09-18T10:37:14.862Z,120.56
2023-09-18T10:38:14.833Z,124.35
2023-09-18T10:39:14.850Z,130.49
2023-09-18T10:40:14.793Z,125.85
2023-09-18T10:41:14.839Z,123.06
2023-09-18T10:42:15.638Z,122.51
2023-09-18T10:43:15.039Z,120.12
2023-09-18T10:44:14.855Z,116.50
2023-09-18T10:45:14.825Z,119.60
2023-09-18T10:46:14.802Z,123.61
2023-09-18T10:47:14.746Z,128.88
2023-09-18T10:48:14.864Z,135.05
2023-09-18T10:49:14.712Z,137.28
2023-09-18T10:50:14.732Z,140.29
2023-09-18T10:51:14.716Z,138.89
2023-09-18T10:52:14.672Z,138.77
2023-09-18T10:53:14.724Z,139.47
2023-09-18T10:54:15.246Z,147.78
2023-09-18T10:55:14.667Z,153.23
2023-09-18T10:56:14.719Z,157.88
2023-09-18T10:57:14.589Z,158.79
2023-09-18T10:58:14.628Z,160.16
2023-09-18T10:59:14.592Z,157.43
2023-09-18T11:00:14.649Z,160.16
2023-09-18T11:01:14.573Z,159.55
2023-09-18T11:02:14.547Z,156.54
2023-09-18T11:03:14.696Z,151.55
2023-09-18T11:04:14.608Z,150.18
2023-09-18T11:05:14.546Z,149.37
2023-09-18T11:06:14.492Z,149.51
2023-09-18T11:07:14.438Z,148.84
2023-09-18T11:08:15.438Z,150.04
2023-09-18T11:09:14.454Z,150.73
2023-09-18T11:10:14.415Z,151.55
2023-09-18T11:11:14.744Z,153.23
2023-09-18T11:12:14.395Z,146.73
2023-09-18T11:13:14.471Z,144.06
2023-09-18T11:14:14.617Z,147.38
2023-09-18T11:15:14.355Z,151.83
2023-09-18T11:16:14.423Z,159.85
2023-09-18T11:17:14.337Z,157.88
2023-09-18T11:18:14.424Z,160.94
2023-09-18T11:19:14.353Z,165.75
2023-09-18T11:20:14.405Z,173.00
2023-09-18T11:21:14.305Z,173.54
2023-09-18T11:22:14.302Z,176.67
2023-09-18T11:23:14.305Z,181.10
2023-09-18T11:24:14.439Z,184.52
2023-09-18T11:26:14.230Z,178.76
2023-09-18T11:27:14.231Z,174.45
2023-09-18T11:28:14.200Z,176.11
2023-09-18T11:29:14.235Z,178.76
2023-09-18T11:30:14.197Z,178.57
2023-09-18T11:31:14.155Z,183.09
2023-09-18T11:32:14.199Z,181.49
2023-09-18T11:33:14.218Z,182.09
2023-09-18T11:34:14.221Z,184.93
2023-09-18T11:35:14.084Z,185.96
2023-09-18T11:36:14.070Z,184.72
2023-09-18T11:37:14.074Z,184.71
2023-09-18T11:38:14.065Z,188.11
2023-09-18T11:39:14.092Z,186.61
2023-09-18T11:40:14.066Z,187.47
2023-09-18T11:41:14.013Z,186.82
2023-09-18T11:42:14.045Z,185.45
2023-09-18T11:43:13.980Z,186.61
2023-09-18T11:44:13.995Z,185.24
2023-09-18T11:45:13.951Z,184.31
2023-09-18T11:46:14.016Z,186.50
2023-09-18T11:47:13.990Z,188.11
2023-09-18T11:48:13.964Z,189.53
2023-09-18T11:49:13.978Z,189.09
2023-09-18T11:50:13.914Z,187.47
2023-09-18T11:51:13.892Z,185.34
2023-09-18T11:52:13.857Z,177.05
2023-09-18T11:53:13.861Z,173.18
2023-09-18T11:54:13.860Z,172.28
2023-09-18T11:55:13.842Z,174.82
2023-09-18T11:56:14.044Z,175.18
2023-09-18T11:57:13.830Z,175.55
2023-09-18T11:58:13.804Z,175.55
2023-09-18T11:59:13.776Z,169.99
2023-09-18T12:00:13.784Z,170.86
2023-09-18T12:01:13.813Z,167.42
2023-09-18T12:02:13.736Z,164.60
2023-09-18T12:03:13.847Z,164.60
2023-09-18T12:04:13.827Z,164.93
2023-09-18T12:05:13.722Z,165.09
2023-09-18T12:06:13.703Z,164.12
2023-09-18T12:07:13.732Z,162.04
2023-09-18T12:08:13.661Z,165.75
2023-09-18T12:09:13.849Z,165.75
2023-09-18T12:10:13.647Z,164.93
2023-09-18T12:11:13.632Z,165.92
2023-09-18T12:12:13.584Z,165.92
2023-09-18T12:13:13.596Z,164.44
2023-09-18T12:14:13.624Z,160.63
2023-09-18T12:15:13.577Z,156.10
2023-09-18T12:16:13.605Z,153.08
2023-09-18T12:17:13.542Z,150.73
2023-09-18T12:18:13.535Z,152.80
2023-09-18T12:19:13.504Z,152.94
2023-09-18T12:20:13.726Z,149.37
2023-09-18T12:21:13.496Z,146.35
2023-09-18T12:22:13.488Z,145.58
2023-09-18T12:23:13.484Z,143.44
2023-09-18T12:24:13.457Z,143.44
2023-09-18T12:25:16.296Z,141.01
2023-09-18T12:26:13.440Z,138.20
2023-09-18T12:27:13.397Z,132.47
2023-09-18T12:28:13.384Z,129.98
2023-09-18T12:29:13.360Z,129.78
2023-09-18T12:30:13.364Z,127.30
2023-09-18T12:31:13.409Z,126.23
2023-09-18T12:32:13.330Z,127.10
2023-09-18T12:33:13.411Z,126.71
2023-09-18T12:34:13.325Z,127.49
2023-09-18T12:35:13.310Z,128.58
2023-09-18T12:36:13.356Z,130.29
2023-09-18T12:37:13.294Z,125.09
2023-09-18T12:38:13.275Z,122.96
2023-09-18T12:39:13.348Z,120.56
2023-09-18T12:40:13.318Z,119.86
2023-09-18T12:41:13.226Z,120.21
2023-09-18T12:42:13.216Z,117.99
2023-09-18T12:43:13.207Z,112.10
2023-09-18T12:44:13.204Z,105.29
2023-09-18T12:45:13.192Z,103.26
2023-09-18T12:46:13.173Z,101.31
2023-09-18T12:47:13.154Z,103.84
2023-09-18T12:48:13.161Z,105.35